Terminal Aerodrome Forecast
Issued by NWS Portland, ME

Home | Current Version | Previous Version | Text Only | Print | Product List | Glossary On
Versions: 1 2 3 4 5 6 7 8 9 10 11 12 13 14 15
000
FTUS41 KGYX 201733
TAFPWM
TAF
KPWM 201733Z 2018/2118 12007KT P6SM FEW045
     FM210000 VRB03KT P6SM SCT200
     FM211300 12006KT P6SM SCT050 BKN200=

USA.gov is the U.S. government's official web portal to all federal, state and local government web resources and services.